createdAt,value
2023-03-12T00:06:35.391Z,85.50
2023-03-12T00:21:37.472Z,86.52
2023-03-12T00:36:41.592Z,86.68
2023-03-12T00:51:43.901Z,86.82
2023-03-12T01:06:45.942Z,86.62
2023-03-12T01:21:48.092Z,86.36
2023-03-12T01:36:50.273Z,86.06
2023-03-12T01:52:06.960Z,86.08
2023-03-12T02:07:18.325Z,85.87
2023-03-12T02:22:21.423Z,86.25
2023-03-12T02:37:23.449Z,86.54
2023-03-12T02:52:25.516Z,86.10
2023-03-12T03:07:27.613Z,85.29
2023-03-12T03:22:29.616Z,84.94
2023-03-12T03:37:31.698Z,84.83
2023-03-12T03:52:33.913Z,84.63
2023-03-12T04:07:35.982Z,84.53
2023-03-12T04:22:38.172Z,84.51
2023-03-12T04:37:40.199Z,84.48
2023-03-12T04:52:42.276Z,84.65
2023-03-12T05:07:44.393Z,84.54
2023-03-12T05:22:46.473Z,84.62
2023-03-12T05:37:48.870Z,84.79
2023-03-12T05:52:51.029Z,84.33
2023-03-12T06:07:53.110Z,84.08
2023-03-12T06:22:55.173Z,82.08
2023-03-12T06:37:57.261Z,80.16
2023-03-12T06:52:59.264Z,77.92
2023-03-12T07:08:01.372Z,76.06
2023-03-12T07:23:03.440Z,74.62
2023-03-12T07:38:06.321Z,74.11
2023-03-12T07:53:08.642Z,72.29
2023-03-12T08:08:10.933Z,71.06
2023-03-12T08:23:13.437Z,69.62
2023-03-12T08:38:15.763Z,69.05
2023-03-12T08:53:18.232Z,68.06
2023-03-12T09:08:20.564Z,68.11
2023-03-12T09:23:23.374Z,67.76
2023-03-12T09:38:26.198Z,67.51
2023-03-12T09:53:41.446Z,69.88
2023-03-12T10:09:11.167Z,68.66
2023-03-12T10:24:41.182Z,67.68
2023-03-12T10:39:43.238Z,66.18
2023-03-12T10:54:48.388Z,61.83
2023-03-12T11:10:16.333Z,58.48
2023-03-12T11:25:29.253Z,59.11
2023-03-12T11:41:02.622Z,53.72
2023-03-12T11:56:28.996Z,54.47
2023-03-12T12:11:51.347Z,52.25
2023-03-12T12:26:56.177Z,51.65
2023-03-12T12:42:04.367Z,50.15
2023-03-12T12:57:20.700Z,51.52
2023-03-12T13:12:25.571Z,51.23
2023-03-12T13:27:36.574Z,51.02
2023-03-12T13:42:42.083Z,52.98
2023-03-12T13:57:51.754Z,53.03
2023-03-12T14:13:08.235Z,54.98
2023-03-12T14:28:18.221Z,55.93
2023-03-12T14:43:25.538Z,57.14
2023-03-12T14:58:28.448Z,58.50
2023-03-12T15:13:31.081Z,57.96
2023-03-12T15:28:33.444Z,58.81
2023-03-12T15:43:38.119Z,61.44
2023-03-12T15:58:42.400Z,62.68
2023-03-12T16:13:48.681Z,64.25
2023-03-12T16:28:51.628Z,65.63
2023-03-12T16:43:55.546Z,67.70
2023-03-12T16:59:02.902Z,68.81
2023-03-12T17:14:16.598Z,68.56
2023-03-12T17:29:19.541Z,69.73
2023-03-12T17:44:22.523Z,70.34
2023-03-12T17:59:25.327Z,70.84
2023-03-12T18:14:28.459Z,72.36
2023-03-12T18:29:31.800Z,73.62
2023-03-12T18:44:35.241Z,75.14
2023-03-12T18:59:38.933Z,76.41
2023-03-12T19:14:42.091Z,76.78
2023-03-12T19:29:49.191Z,77.63
2023-03-12T19:44:53.405Z,77.54
2023-03-12T19:59:58.267Z,77.79
2023-03-12T20:15:01.653Z,78.21
2023-03-12T20:30:06.010Z,78.57
2023-03-12T20:45:09.741Z,79.26
2023-03-12T21:00:13.133Z,79.84
2023-03-12T21:15:15.964Z,81.11
2023-03-12T21:30:18.527Z,81.47
2023-03-12T21:45:20.987Z,81.92
2023-03-12T22:00:23.114Z,81.86
2023-03-12T22:15:25.255Z,82.14
2023-03-12T22:30:27.340Z,82.44
2023-03-12T22:45:29.341Z,82.11
2023-03-12T23:00:31.341Z,81.81
2023-03-12T23:15:40.809Z,81.76
2023-03-12T23:30:43.675Z,81.60
2023-03-12T23:45:46.549Z,82.07
